KANW/ANW METAR and TAF weather

Enter ICAO airport designator
Station Type Date Time Source
KANW METAR 2023/09/28 18:35 UTC NOAA

KANW 281835Z AUTO 19005KT 10SM CLR 25/15 A2987 RMK AO2 T02480146


Station Type Date Time Source
KANW Decoded METAR 2023/09/28 18:35 UTC NOAA

Ainsworth Municipal, NE, United States (KANW) 42-35N 100-00W
Sep 28, 2023 - 02:35 PM EDT / 2023.09.28 1835 UTC
Wind: from the S (190 degrees) at 6 MPH (5 KT):0
Visibility: 10 mile(s):0
Sky conditions: clear
Temperature: 76.6 F (24.8 C)
Dew Point: 58.3 F (14.6 C)
Relative Humidity: 53%
Pressure (altimeter): 29.87 in. Hg (1011 hPa)
ob: KANW 281835Z AUTO 19005KT 10SM CLR 25/15 A2987 RMK AO2 T02480146
cycle: 18

Station Type Date Time Source
KANW TAF UTC NOAA

Error!

Example: see airport list